createdAt,value
2022-09-15T00:00:26.598Z,68.86
2022-09-15T00:01:26.617Z,68.96
2022-09-15T00:02:26.648Z,68.96
2022-09-15T00:03:26.548Z,68.86
2022-09-15T00:04:26.513Z,68.86
2022-09-15T00:05:26.507Z,68.96
2022-09-15T00:06:26.514Z,68.86
2022-09-15T00:07:26.479Z,68.86
2022-09-15T00:08:26.483Z,68.86
2022-09-15T00:09:26.458Z,68.86
2022-09-15T00:10:26.449Z,68.86
2022-09-15T00:11:26.460Z,68.86
2022-09-15T00:12:26.450Z,68.86
2022-09-15T00:13:26.417Z,68.86
2022-09-15T00:14:26.404Z,68.86
2022-09-15T00:15:26.393Z,68.86
2022-09-15T00:16:26.416Z,68.86
2022-09-15T00:17:26.395Z,68.86
2022-09-15T00:18:26.361Z,68.86
2022-09-15T00:19:26.372Z,68.86
2022-09-15T00:20:26.342Z,68.86
2022-09-15T00:21:26.329Z,68.86
2022-09-15T00:22:33.482Z,68.86
2022-09-15T00:23:26.327Z,68.86
2022-09-15T00:24:26.295Z,68.86
2022-09-15T00:25:26.284Z,68.86
2022-09-15T00:26:26.275Z,68.86
2022-09-15T00:27:26.289Z,68.86
2022-09-15T00:28:26.251Z,68.86
2022-09-15T00:29:26.241Z,68.86
2022-09-15T00:30:26.294Z,68.86
2022-09-15T00:31:26.270Z,68.86
2022-09-15T00:32:26.211Z,68.86
2022-09-15T00:33:26.243Z,68.86
2022-09-15T00:34:26.193Z,68.86
2022-09-15T00:35:26.211Z,68.86
2022-09-15T00:36:26.167Z,68.86
2022-09-15T00:37:26.155Z,68.86
2022-09-15T00:38:26.145Z,68.86
2022-09-15T00:39:26.151Z,68.86
2022-09-15T00:40:26.227Z,68.86
2022-09-15T00:41:26.150Z,68.86
2022-09-15T00:42:26.100Z,68.86
2022-09-15T00:43:26.092Z,68.86
2022-09-15T00:44:26.106Z,68.86
2022-09-15T00:45:26.128Z,68.86
2022-09-15T00:46:26.055Z,68.86
2022-09-15T00:47:26.047Z,68.86
2022-09-15T00:48:26.035Z,68.86
2022-09-15T00:49:26.024Z,68.86
2022-09-15T00:50:26.035Z,68.86
2022-09-15T00:51:26.048Z,68.86
2022-09-15T00:52:25.990Z,68.86
2022-09-15T00:53:25.982Z,68.86
2022-09-15T00:54:25.968Z,68.86
2022-09-15T00:55:25.990Z,68.86
2022-09-15T00:56:25.947Z,68.86
2022-09-15T00:57:25.937Z,68.86
2022-09-15T00:58:25.930Z,68.86
2022-09-15T00:59:25.914Z,68.86
2022-09-15T01:00:25.905Z,68.86
2022-09-15T01:01:25.953Z,68.86
2022-09-15T01:02:25.955Z,68.86
2022-09-15T01:03:25.876Z,68.86
2022-09-15T01:04:25.859Z,68.86
2022-09-15T01:05:25.848Z,68.86
2022-09-15T01:06:25.861Z,68.86
2022-09-15T01:07:25.849Z,68.86
2022-09-15T01:08:25.839Z,68.86
2022-09-15T01:09:25.805Z,68.86
2022-09-15T01:10:25.794Z,68.86
2022-09-15T01:11:25.788Z,68.86
2022-09-15T01:12:25.790Z,68.86
2022-09-15T01:13:25.763Z,68.86
2022-09-15T01:14:25.770Z,68.86
2022-09-15T01:15:25.743Z,68.86
2022-09-15T01:16:25.812Z,68.86
2022-09-15T01:17:25.717Z,68.86
2022-09-15T01:18:25.708Z,68.86
2022-09-15T01:19:25.695Z,68.76
2022-09-15T01:20:25.709Z,68.86
2022-09-15T01:21:25.674Z,68.86
2022-09-15T01:22:25.664Z,68.86
2022-09-15T01:23:25.709Z,68.76
2022-09-15T01:24:25.641Z,68.86
2022-09-15T01:25:25.633Z,68.76
2022-09-15T01:26:25.619Z,68.76
2022-09-15T01:27:41.618Z,68.76
2022-09-15T01:28:26.618Z,68.76
2022-09-15T01:29:25.590Z,68.76
2022-09-15T01:30:25.579Z,68.76
2022-09-15T01:31:25.681Z,68.76
2022-09-15T01:32:25.554Z,68.76
2022-09-15T01:33:25.545Z,68.76
2022-09-15T01:34:25.555Z,68.76
2022-09-15T01:35:25.524Z,68.76
2022-09-15T01:36:25.510Z,68.76
2022-09-15T01:37:25.500Z,68.76
2022-09-15T01:38:25.488Z,68.76
2022-09-15T01:39:25.532Z,68.76
2022-09-15T01:40:25.522Z,68.76
2022-09-15T01:41:25.496Z,68.76
2022-09-15T01:42:25.447Z,68.76
2022-09-15T01:43:25.437Z,68.76
2022-09-15T01:44:25.426Z,68.76
2022-09-15T01:45:25.460Z,68.76
2022-09-15T01:46:25.428Z,68.76
2022-09-15T01:47:25.393Z,68.76
2022-09-15T01:48:25.381Z,68.76
2022-09-15T01:49:25.369Z,68.76
2022-09-15T01:50:25.388Z,68.76
2022-09-15T01:51:25.350Z,68.76
2022-09-15T01:52:25.336Z,68.76
2022-09-15T01:53:25.329Z,68.76
2022-09-15T01:54:25.315Z,68.76
2022-09-15T01:55:25.332Z,68.76
2022-09-15T01:56:25.316Z,68.76
2022-09-15T01:57:25.283Z,68.76
2022-09-15T01:58:25.271Z,68.76
2022-09-15T01:59:25.260Z,68.76
2022-09-15T02:00:25.249Z,68.76
2022-09-15T02:01:25.364Z,68.76
2022-09-15T02:02:25.288Z,68.76
2022-09-15T02:03:25.219Z,68.76
2022-09-15T02:04:25.205Z,68.76
2022-09-15T02:05:25.200Z,68.76
2022-09-15T02:06:25.183Z,68.76
2022-09-15T02:07:25.221Z,68.76
2022-09-15T02:08:25.222Z,68.76
2022-09-15T02:09:25.151Z,68.76
2022-09-15T02:10:25.153Z,68.76
2022-09-15T02:11:25.152Z,68.76
2022-09-15T02:12:25.144Z,68.76
2022-09-15T02:13:25.111Z,68.76
2022-09-15T02:14:25.096Z,68.76
2022-09-15T02:15:25.088Z,68.76
2022-09-15T02:16:25.205Z,68.76
2022-09-15T02:17:25.066Z,68.76
2022-09-15T02:18:25.073Z,68.76
2022-09-15T02:19:25.044Z,68.76
2022-09-15T02:20:25.031Z,68.66
2022-09-15T02:21:25.020Z,68.66
2022-09-15T02:22:25.010Z,68.66
2022-09-15T02:23:25.032Z,68.66
2022-09-15T02:24:24.994Z,68.66
2022-09-15T02:25:25.002Z,68.66
2022-09-15T02:26:24.966Z,68.66
2022-09-15T02:27:24.978Z,68.66
2022-09-15T02:28:24.944Z,68.66
2022-09-15T02:29:24.938Z,68.66
2022-09-15T02:30:24.954Z,68.66
2022-09-15T02:31:24.998Z,68.66
2022-09-15T02:32:24.901Z,68.66
2022-09-15T02:33:24.892Z,68.66
2022-09-15T02:34:24.885Z,68.66
2022-09-15T02:35:24.891Z,68.66
2022-09-15T02:36:24.857Z,68.66
2022-09-15T02:37:24.848Z,68.66
2022-09-15T02:38:24.841Z,68.66
2022-09-15T02:39:24.828Z,68.66
2022-09-15T02:40:24.939Z,68.66
2022-09-15T02:41:24.805Z,68.66
2022-09-15T02:42:24.792Z,68.66
2022-09-15T02:43:24.808Z,68.66
2022-09-15T02:44:24.769Z,68.66
2022-09-15T02:45:24.862Z,68.66
2022-09-15T02:46:24.750Z,68.66
2022-09-15T02:47:24.764Z,68.66
2022-09-15T02:48:24.726Z,68.66
2022-09-15T02:49:24.720Z,68.66
2022-09-15T02:50:24.708Z,68.66
2022-09-15T02:51:24.695Z,68.66
2022-09-15T02:52:24.685Z,68.66
2022-09-15T02:53:24.693Z,68.66
2022-09-15T02:54:24.663Z,68.66
2022-09-15T02:55:24.654Z,68.66
2022-09-15T02:56:24.640Z,68.66
2022-09-15T02:57:24.631Z,68.66
2022-09-15T02:58:24.641Z,68.66
2022-09-15T02:59:24.630Z,68.66
2022-09-15T03:00:24.596Z,68.66
2022-09-15T03:01:24.669Z,68.66
2022-09-15T03:02:24.644Z,68.66
2022-09-15T03:03:24.569Z,68.66
2022-09-15T03:04:24.576Z,68.66
2022-09-15T03:05:24.543Z,68.66
2022-09-15T03:06:24.533Z,68.66
2022-09-15T03:07:24.523Z,68.66
2022-09-15T03:08:24.509Z,68.66
2022-09-15T03:09:24.498Z,68.66
2022-09-15T03:10:24.575Z,68.66
2022-09-15T03:11:24.479Z,68.66
2022-09-15T03:12:24.470Z,68.66
2022-09-15T03:13:24.460Z,68.66
2022-09-15T03:14:24.444Z,68.66
2022-09-15T03:15:24.475Z,68.66
2022-09-15T03:16:24.492Z,68.66
2022-09-15T03:17:24.415Z,68.66
2022-09-15T03:18:24.403Z,68.66
2022-09-15T03:19:24.415Z,68.66
2022-09-15T03:20:24.381Z,68.66
2022-09-15T03:21:24.372Z,68.66
2022-09-15T03:22:24.358Z,68.66
2022-09-15T03:23:24.349Z,68.66
2022-09-15T03:24:24.335Z,68.66
2022-09-15T03:25:24.358Z,68.66
2022-09-15T03:26:24.314Z,68.66
2022-09-15T03:27:24.306Z,68.66
2022-09-15T03:28:24.292Z,68.66
2022-09-15T03:29:24.283Z,68.66
2022-09-15T03:30:24.275Z,68.56
2022-09-15T03:31:24.559Z,68.66
2022-09-15T03:32:24.248Z,68.66
2022-09-15T03:33:24.240Z,68.66
2022-09-15T03:34:24.226Z,68.66
2022-09-15T03:35:24.284Z,68.56
2022-09-15T03:36:24.205Z,68.56
2022-09-15T03:37:24.196Z,68.56
2022-09-15T03:38:24.184Z,68.66
2022-09-15T03:39:24.175Z,68.66
2022-09-15T03:40:24.327Z,68.56
2022-09-15T03:41:24.187Z,68.66
2022-09-15T03:42:24.140Z,68.66
2022-09-15T03:43:24.129Z,68.56
2022-09-15T03:44:24.149Z,68.66
2022-09-15T03:45:24.156Z,68.56
2022-09-15T03:46:24.101Z,68.56
2022-09-15T03:47:24.154Z,68.56
2022-09-15T03:48:24.076Z,68.56
2022-09-15T03:49:24.615Z,68.56
2022-09-15T03:50:24.055Z,68.56
2022-09-15T03:51:24.044Z,68.56
2022-09-15T03:52:24.058Z,68.56
2022-09-15T03:53:24.021Z,68.56
2022-09-15T03:54:24.010Z,68.56
2022-09-15T03:55:24.000Z,68.56
2022-09-15T03:56:24.014Z,68.56
2022-09-15T03:57:23.984Z,68.56
2022-09-15T03:58:25.976Z,68.56
2022-09-15T03:59:23.955Z,68.56
2022-09-15T04:00:23.949Z,68.56
2022-09-15T04:01:24.056Z,68.56
2022-09-15T04:02:23.969Z,68.56
2022-09-15T04:03:24.035Z,68.56
2022-09-15T04:04:23.907Z,68.56
2022-09-15T04:05:23.890Z,68.56
2022-09-15T04:06:23.880Z,68.56
2022-09-15T04:07:23.868Z,68.56
2022-09-15T04:08:23.861Z,68.56
2022-09-15T04:09:23.981Z,68.56
2022-09-15T04:10:23.837Z,68.56
2022-09-15T04:11:23.825Z,68.56
2022-09-15T04:12:23.816Z,68.56
2022-09-15T04:13:28.462Z,68.56
2022-09-15T04:14:23.796Z,68.56
2022-09-15T04:15:23.981Z,68.56
2022-09-15T04:16:23.930Z,68.56
2022-09-15T04:17:23.761Z,68.56
2022-09-15T04:18:23.749Z,68.56
2022-09-15T04:19:23.762Z,68.56
2022-09-15T04:20:24.615Z,68.56
2022-09-15T04:21:23.750Z,68.56
2022-09-15T04:22:23.711Z,68.56
2022-09-15T04:23:23.695Z,68.56
2022-09-15T04:24:23.684Z,68.56
2022-09-15T04:25:23.677Z,68.56
2022-09-15T04:26:23.715Z,68.56
2022-09-15T04:27:23.651Z,68.56
2022-09-15T04:28:23.644Z,68.56
2022-09-15T04:29:23.633Z,68.56
2022-09-15T04:30:23.621Z,68.56
2022-09-15T04:31:25.587Z,68.56
2022-09-15T04:32:23.598Z,68.56
2022-09-15T04:33:23.586Z,68.56
2022-09-15T04:34:23.580Z,68.56
2022-09-15T04:35:23.588Z,68.56
2022-09-15T04:36:23.584Z,68.56
2022-09-15T04:37:23.542Z,68.56
2022-09-15T04:38:23.533Z,68.56
2022-09-15T04:39:23.521Z,68.56
2022-09-15T04:40:23.569Z,68.56
2022-09-15T04:41:23.499Z,68.56
2022-09-15T04:42:23.694Z,68.56
2022-09-15T04:43:23.478Z,68.56
2022-09-15T04:44:23.502Z,68.56
2022-09-15T04:45:23.456Z,68.56
2022-09-15T04:46:23.536Z,68.56
2022-09-15T04:47:23.433Z,68.56
2022-09-15T04:48:23.425Z,68.56
2022-09-15T04:49:23.601Z,68.56
2022-09-15T04:50:23.401Z,68.56
2022-09-15T04:51:23.411Z,68.56
2022-09-15T04:52:23.379Z,68.56
2022-09-15T04:53:23.368Z,68.56
2022-09-15T04:54:23.543Z,68.56
2022-09-15T04:55:23.346Z,68.56
2022-09-15T04:56:23.356Z,68.56
2022-09-15T04:57:23.327Z,68.56
2022-09-15T04:58:23.317Z,68.56
2022-09-15T04:59:23.757Z,68.56
2022-09-15T05:00:24.154Z,68.56
2022-09-15T05:01:23.359Z,68.56
2022-09-15T05:02:25.113Z,68.56
2022-09-15T05:03:23.260Z,68.56
2022-09-15T05:04:23.437Z,68.56
2022-09-15T05:05:23.238Z,68.56
2022-09-15T05:06:23.229Z,68.56
2022-09-15T05:07:23.862Z,68.56
2022-09-15T05:08:23.209Z,68.56
2022-09-15T05:09:23.194Z,68.56
2022-09-15T05:10:23.186Z,68.56
2022-09-15T05:11:23.174Z,68.56
2022-09-15T05:12:25.052Z,68.56
2022-09-15T05:13:23.150Z,68.56
2022-09-15T05:14:23.141Z,68.56
2022-09-15T05:15:23.129Z,68.56
2022-09-15T05:16:23.156Z,68.56
2022-09-15T05:17:26.763Z,68.56
2022-09-15T05:18:23.101Z,68.56
2022-09-15T05:19:23.085Z,68.56
2022-09-15T05:20:23.079Z,68.56
2022-09-15T05:21:23.603Z,68.56
2022-09-15T05:22:23.222Z,68.56
2022-09-15T05:23:23.124Z,68.56
2022-09-15T05:24:23.035Z,68.56
2022-09-15T05:25:23.019Z,68.56
2022-09-15T05:26:24.148Z,68.56
2022-09-15T05:27:23.003Z,68.56
2022-09-15T05:28:22.990Z,68.56
2022-09-15T05:29:23.662Z,68.56
2022-09-15T05:30:37.646Z,68.56
2022-09-15T05:31:23.990Z,68.56
2022-09-15T05:32:22.947Z,68.56
2022-09-15T05:33:24.306Z,68.56
2022-09-15T05:34:23.629Z,68.56
2022-09-15T05:35:23.309Z,68.56
2022-09-15T05:36:22.902Z,68.56
2022-09-15T05:37:22.890Z,68.56
2022-09-15T05:38:22.880Z,68.56
2022-09-15T05:39:24.614Z,68.56
2022-09-15T05:40:22.925Z,68.59
2022-09-15T05:41:23.448Z,68.56
2022-09-15T05:42:22.844Z,68.59
2022-09-15T05:43:22.824Z,68.56
2022-09-15T05:44:22.818Z,68.56
2022-09-15T05:45:22.806Z,68.56
2022-09-15T05:46:22.885Z,68.56
2022-09-15T05:47:24.576Z,68.56
2022-09-15T05:48:22.772Z,68.56
2022-09-15T05:49:22.760Z,68.56
2022-09-15T05:50:22.751Z,68.56
2022-09-15T05:51:22.895Z,68.59
2022-09-15T05:52:22.728Z,68.56
2022-09-15T05:53:22.716Z,68.56
2022-09-15T05:54:22.711Z,68.56
2022-09-15T05:55:27.967Z,68.56
2022-09-15T05:56:22.687Z,68.56
2022-09-15T05:57:22.697Z,68.56
2022-09-15T05:58:22.664Z,68.59
2022-09-15T05:59:22.655Z,68.59
2022-09-15T06:00:22.648Z,68.56
2022-09-15T06:01:22.723Z,68.56
2022-09-15T06:02:22.736Z,68.46
2022-09-15T06:03:24.496Z,68.56
2022-09-15T06:04:23.601Z,68.56
2022-09-15T06:05:22.587Z,68.56
2022-09-15T06:06:22.613Z,68.59
2022-09-15T06:07:22.566Z,68.56
2022-09-15T06:08:22.555Z,68.56
2022-09-15T06:09:22.544Z,68.56
2022-09-15T06:10:22.534Z,68.56
2022-09-15T06:11:22.544Z,68.56
2022-09-15T06:12:22.539Z,68.56
2022-09-15T06:13:22.499Z,68.56
2022-09-15T06:14:22.518Z,68.56
2022-09-15T06:15:22.482Z,68.49
2022-09-15T06:16:22.549Z,68.46
2022-09-15T06:17:22.456Z,68.56
2022-09-15T06:18:22.451Z,68.49
2022-09-15T06:19:22.463Z,68.46
2022-09-15T06:20:22.426Z,68.59
2022-09-15T06:21:22.433Z,68.46
2022-09-15T06:22:22.410Z,68.56
2022-09-15T06:23:22.392Z,68.46
2022-09-15T06:24:22.408Z,68.56
2022-09-15T06:25:22.369Z,68.56
2022-09-15T06:26:22.362Z,68.56
2022-09-15T06:27:22.371Z,68.59
2022-09-15T06:28:22.341Z,68.46
2022-09-15T06:29:22.352Z,68.56
2022-09-15T06:30:22.319Z,68.49
2022-09-15T06:31:22.335Z,68.59
2022-09-15T06:32:22.297Z,68.56
2022-09-15T06:33:22.283Z,68.56
2022-09-15T06:34:22.298Z,68.56
2022-09-15T06:35:22.261Z,68.56
2022-09-15T06:36:22.250Z,68.56
2022-09-15T06:37:22.242Z,68.56
2022-09-15T06:38:22.236Z,68.46
2022-09-15T06:39:22.245Z,68.59
2022-09-15T06:40:22.320Z,68.49
2022-09-15T06:41:22.200Z,68.59
2022-09-15T06:42:22.211Z,68.59
2022-09-15T06:43:22.257Z,68.59
2022-09-15T06:44:22.166Z,68.56
2022-09-15T06:45:22.155Z,68.56
2022-09-15T06:46:22.165Z,68.56
2022-09-15T06:47:22.158Z,68.49
2022-09-15T06:48:24.783Z,68.39
2022-09-15T06:49:22.137Z,68.26
2022-09-15T06:50:22.099Z,68.29
2022-09-15T06:51:22.091Z,68.29
2022-09-15T06:52:22.077Z,68.29
2022-09-15T06:53:22.067Z,68.39
2022-09-15T06:54:22.081Z,68.26
2022-09-15T06:55:22.046Z,68.36
2022-09-15T06:56:22.034Z,68.36
2022-09-15T06:57:22.025Z,68.36
2022-09-15T06:58:22.013Z,68.36
2022-09-15T06:59:22.051Z,68.66
2022-09-15T07:00:21.990Z,68.66
2022-09-15T07:01:22.012Z,68.46
2022-09-15T07:02:22.145Z,68.49
2022-09-15T07:03:22.122Z,68.36
2022-09-15T07:04:21.954Z,68.36
2022-09-15T07:05:21.947Z,68.26
2022-09-15T07:06:21.941Z,68.29
2022-09-15T07:07:21.942Z,68.29
2022-09-15T07:08:21.905Z,68.29
2022-09-15T07:09:21.895Z,68.29
2022-09-15T07:10:21.882Z,68.29
2022-09-15T07:11:21.872Z,68.26
2022-09-15T07:12:21.885Z,68.36
2022-09-15T07:13:21.860Z,68.46
2022-09-15T07:14:21.838Z,68.46
2022-09-15T07:15:21.858Z,68.46
2022-09-15T07:16:21.874Z,68.46
2022-09-15T07:17:21.838Z,68.46
2022-09-15T07:18:21.794Z,68.46
2022-09-15T07:19:21.813Z,68.36
2022-09-15T07:20:21.773Z,68.46
2022-09-15T07:21:21.764Z,68.46
2022-09-15T07:22:21.752Z,68.56
2022-09-15T07:23:21.744Z,68.56
2022-09-15T07:24:21.756Z,68.56
2022-09-15T07:25:21.719Z,68.46
2022-09-15T07:26:21.733Z,68.46
2022-09-15T07:27:21.701Z,68.46
2022-09-15T07:28:21.687Z,68.56
2022-09-15T07:29:21.678Z,68.56
2022-09-15T07:30:21.666Z,68.66
2022-09-15T07:31:21.770Z,68.66
2022-09-15T07:32:21.645Z,68.76
2022-09-15T07:33:21.632Z,68.86
2022-09-15T07:34:21.623Z,68.86
2022-09-15T07:35:21.610Z,68.86
2022-09-15T07:36:21.598Z,68.76
2022-09-15T07:37:21.614Z,68.66
2022-09-15T07:38:21.577Z,68.76
2022-09-15T07:39:21.575Z,68.76
2022-09-15T07:40:21.652Z,68.86
2022-09-15T07:41:21.547Z,69.16
2022-09-15T07:42:21.561Z,69.26
2022-09-15T07:43:21.524Z,69.26
2022-09-15T07:44:21.540Z,69.26
2022-09-15T07:45:21.535Z,69.26
2022-09-15T07:46:21.490Z,69.26
2022-09-15T07:47:21.519Z,69.26
2022-09-15T07:48:26.262Z,69.26
2022-09-15T07:49:22.485Z,69.46
2022-09-15T07:50:21.447Z,69.46
2022-09-15T07:51:21.441Z,69.46
2022-09-15T07:52:21.425Z,69.46
2022-09-15T07:53:21.414Z,69.46
2022-09-15T07:54:22.970Z,69.56
2022-09-15T07:55:21.393Z,69.56
2022-09-15T07:56:21.380Z,69.46
2022-09-15T07:57:21.395Z,69.56
2022-09-15T07:58:21.360Z,69.66
2022-09-15T07:59:21.348Z,69.66
2022-09-15T08:00:21.341Z,69.66
2022-09-15T08:01:21.396Z,69.66
2022-09-15T08:02:21.508Z,69.66
2022-09-15T08:03:21.327Z,69.66
2022-09-15T08:04:21.295Z,69.66
2022-09-15T08:05:21.283Z,69.66
2022-09-15T08:06:21.283Z,69.46
2022-09-15T08:07:21.291Z,69.66
2022-09-15T08:08:21.255Z,69.76
2022-09-15T08:09:21.241Z,69.66
2022-09-15T08:10:21.310Z,69.56
2022-09-15T08:11:21.254Z,69.56
2022-09-15T08:12:21.214Z,69.66
2022-09-15T08:13:21.196Z,69.66
2022-09-15T08:14:21.196Z,69.66
2022-09-15T08:15:21.177Z,69.66
2022-09-15T08:16:21.219Z,69.66
2022-09-15T08:17:21.173Z,69.66
2022-09-15T08:18:21.144Z,69.76
2022-09-15T08:19:21.187Z,69.66
2022-09-15T08:20:21.154Z,69.66
2022-09-15T08:21:21.111Z,69.76
2022-09-15T08:22:21.099Z,69.86
2022-09-15T08:23:21.088Z,69.76
2022-09-15T08:24:21.082Z,69.76
2022-09-15T08:25:21.085Z,69.76
2022-09-15T08:26:21.057Z,69.76
2022-09-15T08:27:21.044Z,69.76
2022-09-15T08:28:21.037Z,69.76
2022-09-15T08:29:21.025Z,69.86
2022-09-15T08:30:21.080Z,69.86
2022-09-15T08:31:21.087Z,69.86
2022-09-15T08:32:20.993Z,69.76
2022-09-15T08:33:20.981Z,69.76
2022-09-15T08:34:20.971Z,69.66
2022-09-15T08:35:21.013Z,69.86
2022-09-15T08:36:20.948Z,69.76
2022-09-15T08:37:20.937Z,69.66
2022-09-15T08:38:20.939Z,69.66
2022-09-15T08:39:20.914Z,69.66
2022-09-15T08:40:21.111Z,69.76
2022-09-15T08:41:20.916Z,69.76
2022-09-15T08:42:20.890Z,69.66
2022-09-15T08:43:20.879Z,69.66
2022-09-15T08:44:20.881Z,69.76
2022-09-15T08:45:20.848Z,69.86
2022-09-15T08:46:20.905Z,69.76
2022-09-15T08:47:20.828Z,69.76
2022-09-15T08:48:20.817Z,69.76
2022-09-15T08:49:35.766Z,69.66
2022-09-15T08:50:21.796Z,69.76
2022-09-15T08:51:20.810Z,69.66
2022-09-15T08:52:20.798Z,69.76
2022-09-15T08:53:20.785Z,69.76
2022-09-15T08:54:20.752Z,69.66
2022-09-15T08:55:20.739Z,69.66
2022-09-15T08:56:20.733Z,69.56
2022-09-15T08:57:20.719Z,69.46
2022-09-15T08:58:20.734Z,69.56
2022-09-15T08:59:20.699Z,69.56
2022-09-15T09:00:20.686Z,69.66
2022-09-15T09:01:20.732Z,69.66
2022-09-15T09:02:20.674Z,69.66
2022-09-15T09:03:20.701Z,69.66
2022-09-15T09:04:20.646Z,69.66
2022-09-15T09:05:20.630Z,69.66
2022-09-15T09:06:20.620Z,69.56
2022-09-15T09:07:20.740Z,69.16
2022-09-15T09:08:20.599Z,69.16
2022-09-15T09:09:20.618Z,69.26
2022-09-15T09:10:20.581Z,69.56
2022-09-15T09:11:20.567Z,69.56
2022-09-15T09:12:20.609Z,69.56
2022-09-15T09:13:20.559Z,69.46
2022-09-15T09:14:20.541Z,69.36
2022-09-15T09:15:20.521Z,69.26
2022-09-15T09:16:20.652Z,69.26
2022-09-15T09:17:20.535Z,69.26
2022-09-15T09:18:20.525Z,69.16
2022-09-15T09:19:20.480Z,69.26
2022-09-15T09:20:20.468Z,69.26
2022-09-15T09:21:20.464Z,69.16
2022-09-15T09:22:20.453Z,69.26
2022-09-15T09:23:20.491Z,69.16
2022-09-15T09:24:20.456Z,69.16
2022-09-15T09:25:28.163Z,69.16
2022-09-15T09:26:21.403Z,69.16
2022-09-15T09:27:20.391Z,69.16
2022-09-15T09:28:20.385Z,69.16
2022-09-15T09:29:20.400Z,69.16
2022-09-15T09:30:20.358Z,69.16
2022-09-15T09:31:20.387Z,69.26
2022-09-15T09:32:21.817Z,69.26
2022-09-15T09:33:20.325Z,69.26
2022-09-15T09:34:20.345Z,69.16
2022-09-15T09:35:20.303Z,69.16
2022-09-15T09:36:20.297Z,69.16
2022-09-15T09:37:20.281Z,69.16
2022-09-15T09:38:20.271Z,69.16
2022-09-15T09:39:20.315Z,69.26
2022-09-15T09:40:20.375Z,69.16
2022-09-15T09:41:20.239Z,69.16
2022-09-15T09:42:20.231Z,69.16
2022-09-15T09:43:20.216Z,69.16
2022-09-15T09:44:20.209Z,68.96
2022-09-15T09:45:20.227Z,69.06
2022-09-15T09:46:20.296Z,69.06
2022-09-15T09:47:20.174Z,68.96
2022-09-15T09:48:20.164Z,68.96
2022-09-15T09:49:20.152Z,68.86
2022-09-15T09:50:20.168Z,68.86
2022-09-15T09:51:20.130Z,68.86
2022-09-15T09:52:22.083Z,68.86
2022-09-15T09:53:20.106Z,68.76
2022-09-15T09:54:20.101Z,68.86
2022-09-15T09:55:20.138Z,68.66
2022-09-15T09:56:20.079Z,68.56
2022-09-15T09:57:20.065Z,68.56
2022-09-15T09:58:20.053Z,68.56
2022-09-15T09:59:20.052Z,68.56
2022-09-15T10:00:20.065Z,68.46
2022-09-15T10:01:20.134Z,68.46
2022-09-15T10:02:20.015Z,68.46
2022-09-15T10:03:19.998Z,68.56
2022-09-15T10:04:19.992Z,68.46
2022-09-15T10:05:20.046Z,68.46
2022-09-15T10:06:19.994Z,68.46
2022-09-15T10:07:19.956Z,68.46
2022-09-15T10:08:19.946Z,68.46
2022-09-15T10:09:19.936Z,68.46
2022-09-15T10:10:19.924Z,68.46
2022-09-15T10:11:19.968Z,68.46
2022-09-15T10:12:19.902Z,68.46
2022-09-15T10:13:19.890Z,68.46
2022-09-15T10:14:19.878Z,68.46
2022-09-15T10:15:19.868Z,68.46
2022-09-15T10:16:20.007Z,68.46
2022-09-15T10:17:19.845Z,68.46
2022-09-15T10:18:19.837Z,68.46
2022-09-15T10:19:19.826Z,68.46
2022-09-15T10:20:19.813Z,68.36
2022-09-15T10:21:19.802Z,68.36
2022-09-15T10:22:19.827Z,68.46
2022-09-15T10:23:19.781Z,68.36
2022-09-15T10:24:19.772Z,68.26
2022-09-15T10:25:19.760Z,68.26
2022-09-15T10:26:19.747Z,68.26
2022-09-15T10:27:19.797Z,68.16
2022-09-15T10:28:19.729Z,68.16
2022-09-15T10:29:19.714Z,68.06
2022-09-15T10:30:19.742Z,68.06
2022-09-15T10:31:19.735Z,68.06
2022-09-15T10:32:24.305Z,68.06
2022-09-15T10:33:20.670Z,68.06
2022-09-15T10:34:19.663Z,68.06
2022-09-15T10:35:19.650Z,68.06
2022-09-15T10:36:19.643Z,68.06
2022-09-15T10:37:19.657Z,68.06
2022-09-15T10:38:19.647Z,67.96
2022-09-15T10:39:19.606Z,67.96
2022-09-15T10:40:19.673Z,67.96
2022-09-15T10:41:19.590Z,67.96
2022-09-15T10:42:19.576Z,67.96
2022-09-15T10:43:19.616Z,67.96
2022-09-15T10:44:19.555Z,67.96
2022-09-15T10:45:19.540Z,67.86
2022-09-15T10:46:19.615Z,67.86
2022-09-15T10:47:19.519Z,67.86
2022-09-15T10:48:19.574Z,67.76
2022-09-15T10:49:19.531Z,67.76
2022-09-15T10:50:19.487Z,67.76
2022-09-15T10:51:19.477Z,67.66
2022-09-15T10:52:19.468Z,67.66
2022-09-15T10:53:19.456Z,67.66
2022-09-15T10:54:19.475Z,67.76
2022-09-15T10:55:27.787Z,67.86
2022-09-15T10:56:20.422Z,67.86
2022-09-15T10:57:19.454Z,67.96
2022-09-15T10:58:19.399Z,67.96
2022-09-15T10:59:19.440Z,67.96
2022-09-15T11:00:19.418Z,67.96
2022-09-15T11:01:19.385Z,68.06
2022-09-15T11:02:19.434Z,68.16
2022-09-15T11:03:19.346Z,68.06
2022-09-15T11:04:19.335Z,67.96
2022-09-15T11:05:21.942Z,67.96
2022-09-15T11:06:19.329Z,68.06
2022-09-15T11:07:19.306Z,68.06
2022-09-15T11:08:19.311Z,68.06
2022-09-15T11:09:19.282Z,68.06
2022-09-15T11:10:19.300Z,68.06
2022-09-15T11:11:19.259Z,68.06
2022-09-15T11:12:19.250Z,68.06
2022-09-15T11:13:19.237Z,68.06
2022-09-15T11:14:19.229Z,68.06
2022-09-15T11:15:19.404Z,68.06
2022-09-15T11:16:19.228Z,68.06
2022-09-15T11:17:19.195Z,68.06
2022-09-15T11:18:19.190Z,68.06
2022-09-15T11:19:19.173Z,68.16
2022-09-15T11:20:19.193Z,68.16
2022-09-15T11:21:19.181Z,68.06
2022-09-15T11:22:19.140Z,68.06
2022-09-15T11:23:19.134Z,68.06
2022-09-15T11:24:19.121Z,67.96
2022-09-15T11:25:19.108Z,67.96
2022-09-15T11:26:19.134Z,67.96
2022-09-15T11:27:19.115Z,67.96
2022-09-15T11:28:19.078Z,67.86
2022-09-15T11:29:19.067Z,67.96
2022-09-15T11:30:19.054Z,67.86
2022-09-15T11:31:19.141Z,67.96
2022-09-15T11:32:19.122Z,67.96
2022-09-15T11:33:19.021Z,67.96
2022-09-15T11:34:19.013Z,67.96
2022-09-15T11:35:19.002Z,67.96
2022-09-15T11:36:19.026Z,67.96
2022-09-15T11:37:18.980Z,68.06
2022-09-15T11:38:18.998Z,67.96
2022-09-15T11:39:18.958Z,67.96
2022-09-15T11:40:19.060Z,67.96
2022-09-15T11:41:18.936Z,67.96
2022-09-15T11:42:18.978Z,68.16
2022-09-15T11:43:18.941Z,68.16
2022-09-15T11:44:18.930Z,68.16
2022-09-15T11:45:18.891Z,68.16
2022-09-15T11:46:18.989Z,68.16
2022-09-15T11:47:18.909Z,68.16
2022-09-15T11:48:18.887Z,68.16
2022-09-15T11:49:18.879Z,68.06
2022-09-15T11:50:18.838Z,68.06
2022-09-15T11:51:18.824Z,68.06
2022-09-15T11:52:18.879Z,68.06
2022-09-15T11:53:18.803Z,68.06
2022-09-15T11:54:18.837Z,68.06
2022-09-15T11:55:18.783Z,68.06
2022-09-15T11:56:18.776Z,68.06
2022-09-15T11:57:18.764Z,68.06
2022-09-15T11:58:21.831Z,68.06
2022-09-15T11:59:18.795Z,68.06
2022-09-15T12:00:18.730Z,68.06
2022-09-15T12:01:18.730Z,67.96
2022-09-15T12:02:18.814Z,67.96
2022-09-15T12:03:18.775Z,67.96
2022-09-15T12:04:18.684Z,67.96
2022-09-15T12:05:19.510Z,67.96
2022-09-15T12:06:18.667Z,67.96
2022-09-15T12:07:18.661Z,67.96
2022-09-15T12:08:18.640Z,67.96
2022-09-15T12:09:18.630Z,67.96
2022-09-15T12:10:18.675Z,67.96
2022-09-15T12:11:18.612Z,67.96
2022-09-15T12:12:18.699Z,67.96
2022-09-15T12:13:18.589Z,67.96
2022-09-15T12:14:18.578Z,67.96
2022-09-15T12:15:18.599Z,67.96
2022-09-15T12:16:18.580Z,67.96
2022-09-15T12:17:18.545Z,67.96
2022-09-15T12:18:37.054Z,67.96
2022-09-15T12:19:19.543Z,67.96
2022-09-15T12:20:18.547Z,67.96
2022-09-15T12:21:18.542Z,67.96
2022-09-15T12:22:18.640Z,67.96
2022-09-15T12:23:18.476Z,67.96
2022-09-15T12:24:18.467Z,67.96
2022-09-15T12:25:18.458Z,67.96
2022-09-15T12:26:18.480Z,67.96
2022-09-15T12:27:18.436Z,67.96
2022-09-15T12:28:18.502Z,67.96
2022-09-15T12:29:18.417Z,67.96
2022-09-15T12:30:18.402Z,67.96
2022-09-15T12:31:18.493Z,67.96
2022-09-15T12:32:18.380Z,67.96
2022-09-15T12:33:18.371Z,68.06
2022-09-15T12:34:18.357Z,67.96
2022-09-15T12:35:18.372Z,68.06
2022-09-15T12:36:18.335Z,68.06
2022-09-15T12:37:18.355Z,68.06
2022-09-15T12:38:18.312Z,68.06
2022-09-15T12:39:18.304Z,68.06
2022-09-15T12:40:18.342Z,68.06
2022-09-15T12:41:18.280Z,68.06
2022-09-15T12:42:18.299Z,67.96
2022-09-15T12:43:18.290Z,68.06
2022-09-15T12:44:18.249Z,68.06
2022-09-15T12:45:18.237Z,68.06
2022-09-15T12:46:18.353Z,68.06
2022-09-15T12:47:18.214Z,68.06
2022-09-15T12:48:18.234Z,68.06
2022-09-15T12:49:18.192Z,68.06
2022-09-15T12:50:18.182Z,68.06
2022-09-15T12:51:18.193Z,68.06
2022-09-15T12:52:18.161Z,68.06